sensor_id;sensor_type;location;lat;lon;timestamp;P1;durP1;ratioP1;P2;durP2;ratioP2
50649;SDS011;36621;60.058;30.346;2023-03-23T00:04:35;16.77;;;10.25;;
50649;SDS011;36621;60.058;30.346;2023-03-23T00:12:09;14.68;;;9.77;;
50649;SDS011;36621;60.058;30.346;2023-03-23T00:19:42;17.15;;;10.70;;
50649;SDS011;36621;60.058;30.346;2023-03-23T00:27:18;14.52;;;10.57;;
50649;SDS011;36621;60.058;30.346;2023-03-23T00:34:52;15.82;;;10.85;;
50649;SDS011;36621;60.058;30.346;2023-03-23T00:42:28;18.05;;;11.45;;
50649;SDS011;36621;60.058;30.346;2023-03-23T00:50:00;16.23;;;10.38;;
50649;SDS011;36621;60.058;30.346;2023-03-23T00:57:34;13.93;;;10.00;;
50649;SDS011;36621;60.058;30.346;2023-03-23T01:05:06;11.88;;;8.10;;
50649;SDS011;36621;60.058;30.346;2023-03-23T01:12:39;11.68;;;7.70;;
50649;SDS011;36621;60.058;30.346;2023-03-23T01:20:12;10.63;;;7.60;;
50649;SDS011;36621;60.058;30.346;2023-03-23T01:27:46;10.10;;;7.95;;
50649;SDS011;36621;60.058;30.346;2023-03-23T01:35:18;9.80;;;7.72;;
50649;SDS011;36621;60.058;30.346;2023-03-23T01:42:52;12.10;;;7.55;;
50649;SDS011;36621;60.058;30.346;2023-03-23T01:50:25;10.13;;;7.10;;
50649;SDS011;36621;60.058;30.346;2023-03-23T01:58:00;11.30;;;7.78;;
50649;SDS011;36621;60.058;30.346;2023-03-23T02:05:34;10.00;;;7.72;;
50649;SDS011;36621;60.058;30.346;2023-03-23T02:13:16;9.48;;;6.53;;
50649;SDS011;36621;60.058;30.346;2023-03-23T02:20:53;9.90;;;7.68;;
50649;SDS011;36621;60.058;30.346;2023-03-23T02:28:53;9.85;;;7.40;;
50649;SDS011;36621;60.058;30.346;2023-03-23T02:36:42;10.07;;;7.90;;
50649;SDS011;36621;60.058;30.346;2023-03-23T02:44:19;13.73;;;8.40;;
50649;SDS011;36621;60.058;30.346;2023-03-23T02:51:54;10.60;;;7.30;;
50649;SDS011;36621;60.058;30.346;2023-03-23T02:59:31;10.20;;;7.20;;
50649;SDS011;36621;60.058;30.346;2023-03-23T03:07:14;9.70;;;7.65;;
50649;SDS011;36621;60.058;30.346;2023-03-23T03:15:06;8.57;;;6.47;;
50649;SDS011;36621;60.058;30.346;2023-03-23T03:22:46;8.63;;;6.10;;
50649;SDS011;36621;60.058;30.346;2023-03-23T03:30:25;10.80;;;6.65;;
50649;SDS011;36621;60.058;30.346;2023-03-23T03:38:05;8.80;;;5.95;;
50649;SDS011;36621;60.058;30.346;2023-03-23T03:45:39;7.88;;;5.95;;
50649;SDS011;36621;60.058;30.346;2023-03-23T03:53:13;9.25;;;6.07;;
50649;SDS011;36621;60.058;30.346;2023-03-23T04:00:46;8.20;;;5.93;;
50649;SDS011;36621;60.058;30.346;2023-03-23T04:08:23;7.30;;;5.45;;
50649;SDS011;36621;60.058;30.346;2023-03-23T04:15:55;6.97;;;5.50;;
50649;SDS011;36621;60.058;30.346;2023-03-23T04:23:29;8.27;;;5.07;;
50649;SDS011;36621;60.058;30.346;2023-03-23T04:31:06;6.53;;;5.32;;
50649;SDS011;36621;60.058;30.346;2023-03-23T04:38:51;8.13;;;6.10;;
50649;SDS011;36621;60.058;30.346;2023-03-23T04:46:27;8.77;;;6.35;;
50649;SDS011;36621;60.058;30.346;2023-03-23T04:54:05;10.60;;;6.13;;
50649;SDS011;36621;60.058;30.346;2023-03-23T15:36:56;10.55;;;3.13;;
50649;SDS011;36621;60.058;30.346;2023-03-23T15:44:38;7.60;;;2.75;;
50649;SDS011;36621;60.058;30.346;2023-03-23T15:52:42;6.00;;;2.30;;
50649;SDS011;36621;60.058;30.346;2023-03-23T16:00:17;18.20;;;2.95;;
50649;SDS011;36621;60.058;30.346;2023-03-23T16:07:51;7.22;;;2.75;;
50649;SDS011;36621;60.058;30.346;2023-03-23T16:15:24;8.88;;;2.70;;
50649;SDS011;36621;60.058;30.346;2023-03-23T16:23:00;10.88;;;2.65;;
50649;SDS011;36621;60.058;30.346;2023-03-23T16:30:33;7.55;;;2.85;;
50649;SDS011;36621;60.058;30.346;2023-03-23T16:38:06;8.07;;;3.03;;
50649;SDS011;36621;60.058;30.346;2023-03-23T16:45:39;10.38;;;3.28;;
50649;SDS011;36621;60.058;30.346;2023-03-23T16:53:13;9.85;;;3.70;;
50649;SDS011;36621;60.058;30.346;2023-03-23T17:00:47;6.22;;;2.80;;
50649;SDS011;36621;60.058;30.346;2023-03-23T17:08:22;9.05;;;3.28;;
50649;SDS011;36621;60.058;30.346;2023-03-23T17:15:54;5.47;;;2.88;;
50649;SDS011;36621;60.058;30.346;2023-03-23T17:23:38;7.15;;;3.70;;
50649;SDS011;36621;60.058;30.346;2023-03-23T17:31:33;4.55;;;2.35;;
50649;SDS011;36621;60.058;30.346;2023-03-23T17:39:06;8.13;;;2.42;;
50649;SDS011;36621;60.058;30.346;2023-03-23T17:46:39;7.18;;;3.03;;
50649;SDS011;36621;60.058;30.346;2023-03-23T17:54:12;11.50;;;3.03;;
50649;SDS011;36621;60.058;30.346;2023-03-23T18:01:45;5.57;;;2.38;;
50649;SDS011;36621;60.058;30.346;2023-03-23T18:09:19;8.07;;;3.50;;
50649;SDS011;36621;60.058;30.346;2023-03-23T18:16:52;7.50;;;2.75;;
50649;SDS011;36621;60.058;30.346;2023-03-23T18:24:25;6.65;;;2.70;;
50649;SDS011;36621;60.058;30.346;2023-03-23T18:31:57;8.20;;;2.22;;
50649;SDS011;36621;60.058;30.346;2023-03-23T18:39:31;6.53;;;1.95;;
50649;SDS011;36621;60.058;30.346;2023-03-23T18:47:07;7.65;;;2.40;;
50649;SDS011;36621;60.058;30.346;2023-03-23T18:54:40;9.40;;;2.72;;
50649;SDS011;36621;60.058;30.346;2023-03-23T19:02:15;7.95;;;2.67;;
50649;SDS011;36621;60.058;30.346;2023-03-23T19:09:49;11.90;;;3.03;;
50649;SDS011;36621;60.058;30.346;2023-03-23T19:17:21;9.23;;;2.53;;
50649;SDS011;36621;60.058;30.346;2023-03-23T19:24:55;7.55;;;2.47;;
50649;SDS011;36621;60.058;30.346;2023-03-23T19:32:29;9.40;;;2.30;;
50649;SDS011;36621;60.058;30.346;2023-03-23T19:40:04;12.70;;;3.08;;
50649;SDS011;36621;60.058;30.346;2023-03-23T19:47:38;4.20;;;2.05;;
50649;SDS011;36621;60.058;30.346;2023-03-23T19:55:11;5.88;;;1.73;;
50649;SDS011;36621;60.058;30.346;2023-03-23T20:02:45;10.38;;;1.98;;
50649;SDS011;36621;60.058;30.346;2023-03-23T20:10:18;7.75;;;3.08;;
50649;SDS011;36621;60.058;30.346;2023-03-23T20:17:51;6.20;;;2.45;;
50649;SDS011;36621;60.058;30.346;2023-03-23T20:25:24;15.90;;;2.40;;
50649;SDS011;36621;60.058;30.346;2023-03-23T20:32:56;12.70;;;2.75;;
50649;SDS011;36621;60.058;30.346;2023-03-23T20:40:31;10.82;;;2.55;;
50649;SDS011;36621;60.058;30.346;2023-03-23T20:48:03;11.13;;;3.10;;
50649;SDS011;36621;60.058;30.346;2023-03-23T20:55:36;9.38;;;2.85;;
50649;SDS011;36621;60.058;30.346;2023-03-23T21:03:08;13.07;;;3.08;;
50649;SDS011;36621;60.058;30.346;2023-03-23T21:10:44;15.27;;;3.47;;
50649;SDS011;36621;60.058;30.346;2023-03-23T21:18:17;10.68;;;3.53;;
50649;SDS011;36621;60.058;30.346;2023-03-23T21:25:50;11.38;;;2.50;;
50649;SDS011;36621;60.058;30.346;2023-03-23T21:33:23;11.13;;;2.85;;
50649;SDS011;36621;60.058;30.346;2023-03-23T21:40:57;12.27;;;3.35;;
50649;SDS011;36621;60.058;30.346;2023-03-23T21:48:30;17.30;;;3.47;;
50649;SDS011;36621;60.058;30.346;2023-03-23T21:56:05;12.63;;;3.35;;
50649;SDS011;36621;60.058;30.346;2023-03-23T22:03:39;15.38;;;3.20;;
50649;SDS011;36621;60.058;30.346;2023-03-23T22:11:14;15.77;;;3.33;;
50649;SDS011;36621;60.058;30.346;2023-03-23T22:18:47;17.60;;;3.53;;
50649;SDS011;36621;60.058;30.346;2023-03-23T22:26:21;13.88;;;3.10;;
50649;SDS011;36621;60.058;30.346;2023-03-23T22:33:54;14.68;;;3.08;;
50649;SDS011;36621;60.058;30.346;2023-03-23T22:41:29;16.08;;;3.20;;
50649;SDS011;36621;60.058;30.346;2023-03-23T22:49:03;11.45;;;4.13;;
50649;SDS011;36621;60.058;30.346;2023-03-23T22:56:36;16.35;;;3.28;;
50649;SDS011;36621;60.058;30.346;2023-03-23T23:04:08;15.05;;;3.47;;
50649;SDS011;36621;60.058;30.346;2023-03-23T23:11:40;17.60;;;3.72;;
50649;SDS011;36621;60.058;30.346;2023-03-23T23:19:12;10.77;;;2.85;;
50649;SDS011;36621;60.058;30.346;2023-03-23T23:26:46;14.63;;;3.10;;
50649;SDS011;36621;60.058;30.346;2023-03-23T23:34:18;15.20;;;3.47;;
50649;SDS011;36621;60.058;30.346;2023-03-23T23:41:52;16.00;;;3.53;;
50649;SDS011;36621;60.058;30.346;2023-03-23T23:49:25;11.23;;;3.75;;
50649;SDS011;36621;60.058;30.346;2023-03-23T23:56:59;13.43;;;3.50;;
